Time;durP1;ratioP1;P1;durP2;ratioP2;P2;SDS_P1;SDS_P2;PMS_P1;PMS_P2;Temp;Humidity;BMP_temperature;BMP_pressure;BME280_temperature;BME280_humidity;BME280_pressure;Samples;Min_cycle;Max_cycle;Signal;HPM_P1;HPM_P2
2023/08/26 00:02:04;;;;;;;0.00;0.00;;;16.50;84.40;;;;;;5030386;28;20053;-69
2023/08/26 00:04:30;;;;;;;0.00;0.00;;;16.50;84.30;;;;;;5013714;28;20081;-69
2023/08/26 00:06:55;;;;;;;0.00;0.00;;;16.50;84.30;;;;;;5027617;28;20045;-69
2023/08/26 00:09:21;;;;;;;0.00;0.00;;;16.50;84.20;;;;;;5028228;28;20603;-69
2023/08/26 00:11:46;;;;;;;0.00;0.00;;;16.50;84.20;;;;;;5023089;28;20124;-69
2023/08/26 00:14:12;;;;;;;0.00;0.00;;;16.50;84.20;;;;;;5008683;28;20046;-69
2023/08/26 00:16:38;;;;;;;0.00;0.00;;;16.50;84.20;;;;;;5023828;28;20080;-69
2023/08/26 00:19:03;;;;;;;0.00;0.00;;;16.50;84.20;;;;;;5027736;28;20048;-69
2023/08/26 00:21:29;;;;;;;0.00;0.00;;;16.50;84.20;;;;;;5029316;28;20045;-68
2023/08/26 00:23:55;;;;;;;0.00;0.00;;;16.50;84.20;;;;;;5019996;28;20046;-69
2023/08/26 00:26:21;;;;;;;0.20;0.20;;;16.50;84.20;;;;;;5027884;28;20052;-68
2023/08/26 00:28:47;;;;;;;0.00;0.00;;;16.50;84.10;;;;;;5028224;28;20057;-68
2023/08/26 00:31:13;;;;;;;0.00;0.00;;;16.50;84.00;;;;;;5027890;28;20405;-69
2023/08/26 00:33:38;;;;;;;0.00;0.00;;;16.50;84.10;;;;;;5028063;28;20494;-69
2023/08/26 00:36:04;;;;;;;0.00;0.00;;;16.50;84.00;;;;;;5021810;28;20060;-69
2023/08/26 00:38:30;;;;;;;0.00;0.00;;;16.50;84.00;;;;;;5009764;28;20062;-69
2023/08/26 00:40:56;;;;;;;0.00;0.00;;;16.50;84.00;;;;;;5028244;28;20053;-69
2023/08/26 00:43:21;;;;;;;0.00;0.00;;;16.50;84.00;;;;;;5027640;28;20117;-69
2023/08/26 00:45:50;;;;;;;0.00;0.00;;;16.50;83.90;;;;;;5027966;28;20072;-69
2023/08/26 00:48:17;;;;;;;0.00;0.00;;;16.50;83.90;;;;;;5025995;28;20056;-69
2023/08/26 00:50:45;;;;;;;0.00;0.00;;;16.60;83.80;;;;;;5028958;28;20049;-69
2023/08/26 00:53:15;;;;;;;0.00;0.00;;;16.50;83.80;;;;;;5029109;28;20121;-69
2023/08/26 00:55:41;;;;;;;0.00;0.00;;;16.60;83.80;;;;;;5028982;28;20048;-70
2023/08/26 00:58:08;;;;;;;0.00;0.00;;;16.50;83.60;;;;;;5027844;28;20064;-69
2023/08/26 01:00:39;;;;;;;0.00;0.00;;;16.50;83.70;;;;;;5027990;28;20057;-69
2023/08/26 01:03:05;;;;;;;0.00;0.00;;;16.50;83.60;;;;;;5028992;28;20053;-69
2023/08/26 01:05:31;;;;;;;0.00;0.00;;;16.50;83.70;;;;;;5026958;28;20042;-69
2023/08/26 01:07:58;;;;;;;0.00;0.00;;;16.50;83.70;;;;;;5029141;28;20041;-69
2023/08/26 01:10:47;;;;;;;0.00;0.00;;;16.40;83.70;;;;;;5029012;28;20576;-69
2023/08/26 01:13:16;;;;;;;0.00;0.00;;;16.40;83.70;;;;;;5027599;28;20055;-69
2023/08/26 01:15:48;;;;;;;0.00;0.00;;;16.40;83.70;;;;;;5025374;28;20160;-69
2023/08/26 01:18:15;;;;;;;0.00;0.00;;;16.40;83.70;;;;;;5028804;28;20057;-69
2023/08/26 01:20:42;;;;;;;0.00;0.00;;;16.40;83.70;;;;;;5028720;28;20091;-69
2023/08/26 01:23:15;;;;;;;0.00;0.00;;;16.40;83.70;;;;;;5027238;28;20045;-69
2023/08/26 01:25:41;;;;;;;0.00;0.00;;;16.40;83.60;;;;;;5027874;28;20077;-69
2023/08/26 01:28:06;;;;;;;0.00;0.00;;;16.30;83.60;;;;;;5026705;28;20088;-69
2023/08/26 01:30:33;;;;;;;0.00;0.00;;;16.20;83.40;;;;;;5028443;28;20045;-68
2023/08/26 01:33:09;;;;;;;0.00;0.00;;;16.20;83.10;;;;;;5029051;28;20565;-69
2023/08/26 01:35:38;;;;;;;0.00;0.00;;;16.10;82.90;;;;;;5026214;28;20049;-69
2023/08/26 01:38:05;;;;;;;0.00;0.00;;;16.10;82.90;;;;;;5011513;28;20053;-69
2023/08/26 01:40:31;;;;;;;0.00;0.00;;;16.10;82.90;;;;;;5028759;28;20106;-69
2023/08/26 01:42:58;;;;;;;0.00;0.00;;;16.00;82.90;;;;;;5027545;28;20094;-69
2023/08/26 01:45:23;;;;;;;0.00;0.00;;;16.10;82.90;;;;;;5031604;28;20132;-69
2023/08/26 01:47:49;;;;;;;0.00;0.00;;;16.00;82.90;;;;;;5031733;28;20121;-69
2023/08/26 01:50:15;;;;;;;0.00;0.00;;;16.00;82.80;;;;;;5031066;28;20640;-69
2023/08/26 01:52:41;;;;;;;0.00;0.00;;;16.00;82.80;;;;;;5031756;28;20073;-69
2023/08/26 01:55:07;;;;;;;0.00;0.00;;;16.00;82.80;;;;;;5031400;28;20156;-69
2023/08/26 01:57:33;;;;;;;0.00;0.00;;;15.90;82.80;;;;;;5032343;28;20065;-69
2023/08/26 01:59:58;;;;;;;0.00;0.00;;;16.00;82.80;;;;;;5030580;28;20506;-69
2023/08/26 02:02:24;;;;;;;0.00;0.00;;;15.90;82.70;;;;;;5031179;28;20144;-69
2023/08/26 02:04:49;;;;;;;0.00;0.00;;;15.90;82.60;;;;;;5031390;28;20064;-70
2023/08/26 02:07:15;;;;;;;0.00;0.00;;;15.90;82.60;;;;;;5029233;28;20157;-69
2023/08/26 02:09:40;;;;;;;0.00;0.00;;;15.80;82.60;;;;;;5026212;28;20409;-69
2023/08/26 02:12:06;;;;;;;0.00;0.00;;;15.80;82.70;;;;;;5032138;28;20127;-69
2023/08/26 02:14:32;;;;;;;0.00;0.00;;;15.80;82.80;;;;;;5030881;28;20499;-69
2023/08/26 02:16:58;;;;;;;0.00;0.00;;;15.80;82.90;;;;;;5030355;28;20048;-69
2023/08/26 02:19:24;;;;;;;0.00;0.00;;;15.70;83.00;;;;;;5030335;28;20543;-69
2023/08/26 02:21:51;;;;;;;0.00;0.00;;;15.70;83.00;;;;;;5030696;28;20091;-69
2023/08/26 02:24:17;;;;;;;0.00;0.00;;;15.70;83.00;;;;;;5030256;28;20135;-70
2023/08/26 02:26:42;;;;;;;0.00;0.00;;;15.60;83.00;;;;;;5030121;28;20700;-69
2023/08/26 02:29:08;;;;;;;0.00;0.00;;;15.70;83.00;;;;;;5030456;28;20053;-69
2023/08/26 02:31:34;;;;;;;0.00;0.00;;;15.60;83.00;;;;;;5030103;28;20073;-69
2023/08/26 02:33:59;;;;;;;0.08;0.08;;;15.60;83.10;;;;;;5027084;28;20045;-69
2023/08/26 02:36:25;;;;;;;0.00;0.00;;;15.60;83.10;;;;;;5028036;28;20049;-69
2023/08/26 02:38:50;;;;;;;0.00;0.00;;;15.60;83.20;;;;;;5015127;28;20049;-69
2023/08/26 02:41:16;;;;;;;0.00;0.00;;;15.60;83.20;;;;;;5030365;28;20049;-69
2023/08/26 02:43:42;;;;;;;0.00;0.00;;;15.60;83.30;;;;;;5026454;28;20100;-69
2023/08/26 02:46:07;;;;;;;0.00;0.00;;;15.60;83.40;;;;;;5014340;28;20080;-69
2023/08/26 02:48:33;;;;;;;0.00;0.00;;;15.60;83.40;;;;;;5029508;28;20405;-69
2023/08/26 02:51:00;;;;;;;0.00;0.00;;;15.60;83.50;;;;;;5029791;28;20061;-69
2023/08/26 02:53:26;;;;;;;0.00;0.00;;;15.60;83.60;;;;;;5029702;28;20620;-69
2023/08/26 02:55:53;;;;;;;0.00;0.00;;;15.60;83.60;;;;;;5029142;28;20084;-68
2023/08/26 02:58:19;;;;;;;0.00;0.00;;;15.60;83.60;;;;;;5030971;28;20045;-69
2023/08/26 03:00:46;;;;;;;0.00;0.00;;;15.60;83.70;;;;;;5010634;28;20076;-69
2023/08/26 03:03:11;;;;;;;0.00;0.00;;;15.60;83.80;;;;;;5011641;28;20136;-69
2023/08/26 03:05:37;;;;;;;0.00;0.00;;;15.60;83.90;;;;;;5019032;28;20179;-69
2023/08/26 03:08:03;;;;;;;0.00;0.00;;;15.60;83.90;;;;;;5029942;28;20045;-69
2023/08/26 03:10:29;;;;;;;0.00;0.00;;;15.60;84.10;;;;;;5027154;28;20038;-69
2023/08/26 03:12:55;;;;;;;0.00;0.00;;;15.70;84.20;;;;;;5018873;28;20041;-69
2023/08/26 03:15:20;;;;;;;0.00;0.00;;;15.70;84.30;;;;;;5010088;28;20045;-69
2023/08/26 03:17:46;;;;;;;0.00;0.00;;;15.80;84.30;;;;;;5011409;28;20478;-69
2023/08/26 03:20:13;;;;;;;0.00;0.00;;;15.70;84.40;;;;;;5025567;28;20143;-69
2023/08/26 03:22:38;;;;;;;0.00;0.00;;;15.80;84.50;;;;;;5030278;28;20124;-69
2023/08/26 03:25:04;;;;;;;0.00;0.00;;;15.80;84.50;;;;;;5029126;28;20137;-69
2023/08/26 03:27:30;;;;;;;0.00;0.00;;;15.80;84.60;;;;;;5030417;28;20052;-69
2023/08/26 03:29:55;;;;;;;0.00;0.00;;;15.80;84.60;;;;;;5028956;28;20041;-69
2023/08/26 03:32:21;;;;;;;0.00;0.00;;;15.90;84.60;;;;;;5028753;28;20452;-69
2023/08/26 03:34:47;;;;;;;0.00;0.00;;;15.90;84.70;;;;;;5015728;28;20047;-68
2023/08/26 03:37:12;;;;;;;0.00;0.00;;;16.00;84.80;;;;;;5011140;28;20133;-69
2023/08/26 03:39:38;;;;;;;0.00;0.00;;;15.90;84.80;;;;;;5030147;28;20079;-69
2023/08/26 03:42:04;;;;;;;0.00;0.00;;;15.90;84.80;;;;;;5029160;28;20087;-69
2023/08/26 03:44:30;;;;;;;0.00;0.00;;;16.00;84.90;;;;;;5030149;28;20037;-69
2023/08/26 03:46:55;;;;;;;0.00;0.00;;;16.00;84.90;;;;;;5029917;28;20042;-69
2023/08/26 03:49:21;;;;;;;0.00;0.00;;;16.00;84.90;;;;;;5004031;28;20092;-69
2023/08/26 03:51:46;;;;;;;0.00;0.00;;;16.00;84.80;;;;;;5027649;28;20045;-69
2023/08/26 03:54:12;;;;;;;0.00;0.00;;;16.00;84.90;;;;;;5012468;28;20049;-69
2023/08/26 03:56:37;;;;;;;0.00;0.00;;;16.00;84.90;;;;;;5029108;28;20049;-69
2023/08/26 04:02:19;;;;;;;0.00;0.00;;;16.10;85.00;;;;;;5004212;28;20060;-69
2023/08/26 04:04:45;;;;;;;0.00;0.00;;;16.10;85.00;;;;;;5010647;28;20144;-69
2023/08/26 04:07:11;;;;;;;0.00;0.00;;;16.10;85.20;;;;;;5008250;28;20153;-69
2023/08/26 04:09:36;;;;;;;0.00;0.00;;;16.10;85.20;;;;;;5024344;28;20099;-69
2023/08/26 04:12:02;;;;;;;0.00;0.00;;;16.10;85.20;;;;;;5027815;28;20099;-69
2023/08/26 04:14:28;;;;;;;0.00;0.00;;;16.20;85.20;;;;;;5029766;28;20050;-68
2023/08/26 04:16:54;;;;;;;0.00;0.00;;;16.20;85.20;;;;;;5028433;28;20460;-69
2023/08/26 04:19:20;;;;;;;0.00;0.00;;;16.20;85.20;;;;;;5027185;28;20059;-69
2023/08/26 04:21:46;;;;;;;0.00;0.00;;;16.20;85.20;;;;;;5029414;28;20049;-69
2023/08/26 04:24:12;;;;;;;0.00;0.00;;;16.30;85.30;;;;;;5028158;28;20421;-69
2023/08/26 04:26:37;;;;;;;0.00;0.00;;;16.30;85.30;;;;;;5028023;28;20506;-69
2023/08/26 04:29:03;;;;;;;0.00;0.00;;;16.40;85.30;;;;;;5005567;28;20091;-69
2023/08/26 04:31:29;;;;;;;0.00;0.00;;;16.40;85.20;;;;;;5029085;28;20046;-69
2023/08/26 04:33:54;;;;;;;0.10;0.10;;;16.40;85.30;;;;;;5028584;28;20601;-69
2023/08/26 04:36:20;;;;;;;0.00;0.00;;;16.40;85.20;;;;;;5027823;28;20049;-69
2023/08/26 04:38:46;;;;;;;0.00;0.00;;;16.40;85.20;;;;;;5029133;28;20048;-69
2023/08/26 04:41:11;;;;;;;0.00;0.00;;;16.30;85.20;;;;;;5026827;28;20554;-69
2023/08/26 04:44:27;;;;;;;0.00;0.00;;;16.30;85.20;;;;;;5011866;28;20522;-69
2023/08/26 04:51:29;;;;;;;0.00;0.00;;;16.30;85.30;;;;;;5028085;28;20131;-69
2023/08/26 04:54:51;;;;;;;0.00;0.00;;;16.20;85.20;;;;;;5026662;28;20057;-69
2023/08/26 04:57:47;;;;;;;0.00;0.00;;;16.20;85.40;;;;;;5014388;28;20104;-69
2023/08/26 05:00:19;;;;;;;0.00;0.00;;;16.20;85.40;;;;;;5026444;28;20057;-68
2023/08/26 05:03:37;;;;;;;0.00;0.00;;;16.20;85.40;;;;;;5027781;28;20588;-68
2023/08/26 05:06:54;;;;;;;0.03;0.03;;;16.10;85.40;;;;;;5019586;28;20054;-69
2023/08/26 05:13:39;;;;;;;0.00;0.00;;;16.10;85.30;;;;;;5020253;28;20121;-69
2023/08/26 05:16:51;;;;;;;0.00;0.00;;;16.10;85.30;;;;;;5021268;28;20119;-69
2023/08/26 05:19:42;;;;;;;0.00;0.00;;;16.10;85.40;;;;;;5014753;28;20053;-69
2023/08/26 05:22:32;;;;;;;0.00;0.00;;;16.10;85.40;;;;;;5029242;28;20044;-68
2023/08/26 05:24:58;;;;;;;0.00;0.00;;;16.10;85.50;;;;;;5029993;28;20107;-68
2023/08/26 05:27:33;;;;;;;0.05;0.05;;;16.10;85.60;;;;;;5030643;28;20456;-68
2023/08/26 05:30:23;;;;;;;0.00;0.00;;;16.20;85.60;;;;;;5031760;28;20041;-68
2023/08/26 05:33:17;;;;;;;0.08;0.08;;;16.10;85.50;;;;;;5024856;28;20037;-68
2023/08/26 05:35:43;;;;;;;0.00;0.00;;;16.10;85.40;;;;;;5019784;28;20045;-69
2023/08/26 05:38:08;;;;;;;0.00;0.00;;;16.10;85.50;;;;;;5027012;28;20030;-70
2023/08/26 05:40:34;;;;;;;0.00;0.00;;;16.10;85.60;;;;;;5045325;23;20076;-68
2023/08/26 05:43:12;;;;;;;0.00;0.00;;;16.10;85.60;;;;;;5047340;28;20060;-68
2023/08/26 05:45:57;;;;;;;0.00;0.00;;;16.10;85.60;;;;;;5040952;28;20045;-69
2023/08/26 05:48:22;;;;;;;0.00;0.00;;;16.10;85.30;;;;;;5040974;28;20587;-68
2023/08/26 05:50:51;;;;;;;0.00;0.00;;;16.10;85.40;;;;;;5036322;28;20056;-69
2023/08/26 05:53:34;;;;;;;0.00;0.00;;;16.00;85.30;;;;;;5041806;28;20114;-69
2023/08/26 05:56:05;;;;;;;0.00;0.00;;;16.00;85.10;;;;;;5043199;28;20051;-68
2023/08/26 05:58:49;;;;;;;0.00;0.00;;;16.00;85.00;;;;;;5042128;28;20817;-69
2023/08/26 06:01:24;;;;;;;0.00;0.00;;;16.00;84.90;;;;;;5027053;28;20053;-68
2023/08/26 06:03:49;;;;;;;0.00;0.00;;;16.00;84.80;;;;;;5049994;28;20480;-67
2023/08/26 06:06:24;;;;;;;0.00;0.00;;;16.10;84.90;;;;;;5046613;28;20037;-69
2023/08/26 06:12:39;;;;;;;0.00;0.00;;;16.20;84.90;;;;;;5027650;28;20759;-69
2023/08/26 06:15:57;;;;;;;0.00;0.00;;;16.30;84.90;;;;;;5002360;28;20519;-69
2023/08/26 06:18:38;;;;;;;0.00;0.00;;;16.40;84.90;;;;;;5011744;28;20145;-69
2023/08/26 06:21:04;;;;;;;0.00;0.00;;;16.50;84.90;;;;;;5042234;28;20503;-69
2023/08/26 06:23:57;;;;;;;0.00;0.00;;;16.50;84.80;;;;;;5042420;28;20091;-68
2023/08/26 06:26:23;;;;;;;0.00;0.00;;;16.60;84.90;;;;;;5020265;28;20069;-68
2023/08/26 06:28:48;;;;;;;0.00;0.00;;;16.70;84.90;;;;;;5012804;28;20084;-69
2023/08/26 06:31:14;;;;;;;0.00;0.00;;;16.70;85.00;;;;;;5014339;28;20053;-69
2023/08/26 06:33:40;;;;;;;0.00;0.00;;;16.70;84.90;;;;;;5018563;28;20073;-72
2023/08/26 06:36:18;;;;;;;0.00;0.00;;;16.70;85.00;;;;;;5010615;28;20048;-69
2023/08/26 06:38:50;;;;;;;0.00;0.00;;;16.70;85.00;;;;;;5019882;28;20060;-69
2023/08/26 06:41:56;;;;;;;0.10;0.10;;;16.70;85.00;;;;;;5014483;28;20053;-66
2023/08/26 06:44:27;;;;;;;0.00;0.00;;;16.70;85.10;;;;;;5015901;28;20064;-66
2023/08/26 06:46:53;;;;;;;0.00;0.00;;;16.80;85.20;;;;;;5013468;28;21243;-66
2023/08/26 06:52:52;;;;;;;0.00;0.00;;;16.80;85.50;;;;;;5011811;28;20042;-66
2023/08/26 06:55:37;;;;;;;0.10;0.10;;;16.80;85.60;;;;;;5012561;28;20062;-66
2023/08/26 06:58:03;;;;;;;0.00;0.00;;;16.80;86.00;;;;;;5017047;28;20042;-67
2023/08/26 07:00:28;;;;;;;0.00;0.00;;;17.00;86.10;;;;;;5014588;28;20478;-66
2023/08/26 07:03:00;;;;;;;0.15;0.15;;;17.10;86.40;;;;;;5015428;28;20038;-66
2023/08/26 07:08:35;;;;;;;0.00;0.00;;;17.20;86.60;;;;;;5019246;28;19925;-66
2023/08/26 07:11:00;;;;;;;0.17;0.17;;;17.30;86.80;;;;;;5014088;28;20037;-66
2023/08/26 07:13:29;;;;;;;0.00;0.00;;;17.40;87.10;;;;;;5013430;28;20065;-66
2023/08/26 07:16:03;;;;;;;0.00;0.00;;;17.50;86.80;;;;;;5010125;28;20042;-65
2023/08/26 07:18:44;;;;;;;0.00;0.00;;;17.50;86.50;;;;;;5012977;28;20558;-66
2023/08/26 07:21:13;;;;;;;0.00;0.00;;;17.60;86.40;;;;;;5011397;28;20111;-67
2023/08/26 07:23:38;;;;;;;0.00;0.00;;;17.60;86.10;;;;;;5017651;28;20058;-71
2023/08/26 07:26:04;;;;;;;0.00;0.00;;;17.70;85.80;;;;;;5017917;28;20128;-66
2023/08/26 07:28:29;;;;;;;0.00;0.00;;;17.80;85.70;;;;;;5011364;28;20054;-67
2023/08/26 07:31:05;;;;;;;0.30;0.30;;;18.00;85.50;;;;;;5029203;28;20481;-70
2023/08/26 07:33:33;;;;;;;0.00;0.00;;;18.10;85.50;;;;;;5029775;28;20672;-71
2023/08/26 07:36:07;;;;;;;0.00;0.00;;;18.20;84.20;;;;;;5029342;28;20041;-70
2023/08/26 07:38:33;;;;;;;0.00;0.00;;;18.20;83.80;;;;;;5030360;28;20129;-70
2023/08/26 07:41:08;;;;;;;0.00;0.00;;;18.30;83.00;;;;;;5029744;28;20053;-71
2023/08/26 07:43:36;;;;;;;0.00;0.00;;;18.20;82.20;;;;;;5029731;28;20038;-70
2023/08/26 07:46:01;;;;;;;0.00;0.00;;;18.30;81.90;;;;;;5029522;28;20505;-70
2023/08/26 07:48:30;;;;;;;0.00;0.00;;;18.30;81.80;;;;;;5029910;28;20132;-70
2023/08/26 07:51:05;;;;;;;0.00;0.00;;;18.30;81.60;;;;;;5029754;28;20041;-70
2023/08/26 07:53:30;;;;;;;0.00;0.00;;;18.30;81.50;;;;;;5014960;28;20556;-70
2023/08/26 07:56:08;;;;;;;0.00;0.00;;;18.30;80.70;;;;;;5029466;28;20041;-70
2023/08/26 07:58:40;;;;;;;0.00;0.00;;;18.20;81.00;;;;;;5009602;28;20044;-71
2023/08/26 08:01:05;;;;;;;0.00;0.00;;;18.20;81.40;;;;;;5009946;28;20045;-70
2023/08/26 08:03:31;;;;;;;0.00;0.00;;;18.20;81.40;;;;;;5013811;28;20041;-70
2023/08/26 08:05:59;;;;;;;0.10;0.10;;;18.20;81.60;;;;;;5029878;28;20051;-70
2023/08/26 08:08:25;;;;;;;0.00;0.00;;;18.20;81.50;;;;;;5029776;28;20037;-70
2023/08/26 08:10:51;;;;;;;0.00;0.00;;;18.30;81.30;;;;;;5029745;28;20049;-70
2023/08/26 08:13:22;;;;;;;0.00;0.00;;;18.30;81.00;;;;;;5029246;28;20414;-70
2023/08/26 08:15:51;;;;;;;1.85;1.45;;;18.40;80.60;;;;;;5027439;28;20044;-70
2023/08/26 08:18:29;;;;;;;0.38;0.38;;;18.40;78.70;;;;;;5024518;28;20436;-70
2023/08/26 08:21:08;;;;;;;0.00;0.00;;;18.40;78.90;;;;;;5027252;28;20494;-71
2023/08/26 08:23:45;;;;;;;0.00;0.00;;;18.40;78.70;;;;;;5020923;28;20049;-71
2023/08/26 08:26:33;;;;;;;0.00;0.00;;;18.30;77.10;;;;;;5020574;28;20046;-71
2023/08/26 08:29:19;;;;;;;0.00;0.00;;;18.10;77.50;;;;;;5022365;28;20049;-71
2023/08/26 08:31:56;;;;;;;0.00;0.00;;;18.10;77.40;;;;;;5021973;28;20116;-71
2023/08/26 08:34:50;;;;;;;0.00;0.00;;;18.10;77.30;;;;;;5012809;28;20045;-71
2023/08/26 08:37:16;;;;;;;0.00;0.00;;;18.10;77.00;;;;;;5019404;28;20064;-71
2023/08/26 08:40:48;;;;;;;0.00;0.00;;;18.10;76.20;;;;;;5020677;28;20058;-72
2023/08/26 08:46:58;;;;;;;0.00;0.00;;;18.30;76.20;;;;;;5017898;28;20064;-71
2023/08/26 08:49:24;;;;;;;0.00;0.00;;;18.50;76.20;;;;;;5021388;28;20096;-71
2023/08/26 08:51:51;;;;;;;0.00;0.00;;;18.50;76.30;;;;;;5011130;28;20835;-71
2023/08/26 08:54:17;;;;;;;0.00;0.00;;;18.60;75.90;;;;;;5016050;28;20048;-71
2023/08/26 08:56:58;;;;;;;0.10;0.10;;;18.60;74.60;;;;;;5015389;28;20518;-70
2023/08/26 08:59:27;;;;;;;0.00;0.00;;;18.60;75.80;;;;;;5012235;28;20082;-70
2023/08/26 09:02:04;;;;;;;0.38;0.38;;;18.60;76.50;;;;;;5009704;28;20053;-71
2023/08/26 09:04:33;;;;;;;0.00;0.00;;;18.60;77.30;;;;;;5011578;28;20056;-71
2023/08/26 09:10:14;;;;;;;0.00;0.00;;;18.30;77.50;;;;;;5013461;28;20054;-73
2023/08/26 09:12:55;;;;;;;0.03;0.03;;;18.10;78.50;;;;;;5012123;28;20084;-72
2023/08/26 09:15:51;;;;;;;0.00;0.00;;;18.10;79.50;;;;;;5016353;28;20097;-72
2023/08/26 09:18:40;;;;;;;0.00;0.00;;;17.90;80.10;;;;;;5015687;28;20065;-72
2023/08/26 09:21:42;;;;;;;0.00;0.00;;;17.80;80.70;;;;;;5018575;28;20422;-74
2023/08/26 09:24:14;;;;;;;0.00;0.00;;;17.70;81.00;;;;;;4986300;28;20058;-74
2023/08/26 09:26:41;;;;;;;0.00;0.00;;;17.70;81.00;;;;;;5010483;28;20442;-75
2023/08/26 09:29:25;;;;;;;0.00;0.00;;;17.70;81.20;;;;;;5018838;28;20501;-74
2023/08/26 09:31:54;;;;;;;0.00;0.00;;;17.70;81.30;;;;;;5025238;28;20041;-70
2023/08/26 09:34:35;;;;;;;0.00;0.00;;;17.70;81.50;;;;;;5028082;28;20095;-72
2023/08/26 09:37:35;;;;;;;0.00;0.00;;;17.80;82.40;;;;;;5023887;28;20049;-72
2023/08/26 09:40:22;;;;;;;0.00;0.00;;;17.90;82.20;;;;;;5002020;28;20145;-72
2023/08/26 09:43:14;;;;;;;0.00;0.00;;;18.00;82.50;;;;;;5007905;28;20112;-72
2023/08/26 09:45:46;;;;;;;0.30;0.30;;;18.00;83.10;;;;;;5008588;28;20042;-72
2023/08/26 09:48:30;;;;;;;0.00;0.00;;;18.00;83.20;;;;;;5007849;28;20566;-72
2023/08/26 09:54:54;;;;;;;0.00;0.00;;;17.90;83.50;;;;;;5005759;28;20049;-72
2023/08/26 09:57:22;;;;;;;0.00;0.00;;;17.90;83.40;;;;;;5005593;28;20120;-72
2023/08/26 09:59:48;;;;;;;0.00;0.00;;;17.90;83.40;;;;;;5004958;28;20380;-69
2023/08/26 10:02:21;;;;;;;0.00;0.00;;;17.80;82.80;;;;;;5004789;28;20188;-69
2023/08/26 10:04:53;;;;;;;0.08;0.08;;;17.80;82.60;;;;;;5006957;28;20042;-71
2023/08/26 10:07:20;;;;;;;0.00;0.00;;;17.80;81.90;;;;;;4982515;28;20939;-71
2023/08/26 10:10:09;;;;;;;0.00;0.00;;;17.80;82.10;;;;;;4992427;28;20628;-69
2023/08/26 10:12:39;;;;;;;0.00;0.00;;;17.80;82.10;;;;;;4987539;28;20060;-70
2023/08/26 10:15:11;;;;;;;0.00;0.00;;;17.80;81.70;;;;;;4997079;28;20407;-69
2023/08/26 10:17:39;;;;;;;0.00;0.00;;;17.80;80.30;;;;;;4997231;28;20034;-70
2023/08/26 10:20:06;;;;;;;0.00;0.00;;;17.80;77.90;;;;;;4998853;28;20144;-69
2023/08/26 10:22:32;;;;;;;0.00;0.00;;;17.90;77.90;;;;;;4997649;28;20046;-70
2023/08/26 10:24:58;;;;;;;0.00;0.00;;;17.90;77.20;;;;;;5003122;28;20506;-70
2023/08/26 10:27:24;;;;;;;0.00;0.00;;;18.00;78.00;;;;;;4998729;28;20038;-70
2023/08/26 10:29:50;;;;;;;0.00;0.00;;;18.20;80.50;;;;;;4997082;28;20062;-70
2023/08/26 10:32:20;;;;;;;0.00;0.00;;;18.30;79.40;;;;;;5002358;28;20186;-70
2023/08/26 10:35:11;;;;;;;0.00;0.00;;;18.60;79.60;;;;;;4997979;28;20055;-70
2023/08/26 10:37:37;;;;;;;0.00;0.00;;;18.60;78.20;;;;;;4992629;28;20065;-70
2023/08/26 10:40:08;;;;;;;0.00;0.00;;;18.80;78.20;;;;;;4999210;28;20189;-69
2023/08/26 10:42:36;;;;;;;0.00;0.00;;;19.00;79.20;;;;;;5014837;28;20064;-69
2023/08/26 10:45:02;;;;;;;0.00;0.00;;;19.30;78.80;;;;;;5012489;28;20053;-70
2023/08/26 10:47:40;;;;;;;0.00;0.00;;;19.50;77.80;;;;;;5021328;28;20052;-70
2023/08/26 10:50:13;;;;;;;0.00;0.00;;;19.40;76.80;;;;;;5012110;28;20053;-70
2023/08/26 10:52:42;;;;;;;0.00;0.00;;;19.30;75.60;;;;;;5016872;28;20443;-70
2023/08/26 10:55:32;;;;;;;0.00;0.00;;;19.30;74.80;;;;;;4999351;28;20057;-70
2023/08/26 10:58:15;;;;;;;0.20;0.20;;;19.40;75.10;;;;;;5015383;28;20495;-70
2023/08/26 11:00:59;;;;;;;0.00;0.00;;;19.60;75.20;;;;;;5021430;28;20053;-70
2023/08/26 11:03:25;;;;;;;0.13;0.13;;;19.90;75.40;;;;;;5026255;28;20041;-69
2023/08/26 11:06:02;;;;;;;0.00;0.00;;;20.00;73.50;;;;;;5015159;28;20046;-69
2023/08/26 11:08:27;;;;;;;0.00;0.00;;;20.10;73.30;;;;;;5014417;28;20507;-69
2023/08/26 11:10:53;;;;;;;0.00;0.00;;;19.80;71.90;;;;;;5015189;28;20040;-69
2023/08/26 11:13:22;;;;;;;0.00;0.00;;;19.90;73.20;;;;;;5018666;28;20064;-69
2023/08/26 11:15:49;;;;;;;0.00;0.00;;;19.90;72.10;;;;;;5029800;28;20042;-69
2023/08/26 11:18:16;;;;;;;0.00;0.00;;;19.90;70.60;;;;;;5042144;28;20045;-69
2023/08/26 11:20:43;;;;;;;0.00;0.00;;;19.90;71.60;;;;;;5029668;28;20065;-69
2023/08/26 11:23:09;;;;;;;0.00;0.00;;;19.90;71.70;;;;;;5029240;28;20072;-70
2023/08/26 11:25:35;;;;;;;0.00;0.00;;;19.90;71.00;;;;;;5029251;28;20076;-71
2023/08/26 11:28:03;;;;;;;0.10;0.10;;;19.90;70.80;;;;;;5030913;28;20418;-71
2023/08/26 11:30:29;;;;;;;0.00;0.00;;;19.80;71.70;;;;;;5029703;28;20118;-70
2023/08/26 11:32:58;;;;;;;0.00;0.00;;;19.70;71.30;;;;;;5029002;28;20095;-70
2023/08/26 11:35:24;;;;;;;0.00;0.00;;;19.70;71.00;;;;;;5019004;28;20269;-71
2023/08/26 11:37:49;;;;;;;0.00;0.00;;;19.60;69.60;;;;;;5012307;28;20042;-70
2023/08/26 11:40:15;;;;;;;0.00;0.00;;;19.50;70.40;;;;;;5030371;28;20107;-71
2023/08/26 11:42:42;;;;;;;0.00;0.00;;;19.40;70.80;;;;;;5030458;28;20493;-70
2023/08/26 11:45:11;;;;;;;0.00;0.00;;;19.30;72.20;;;;;;5029463;28;20127;-71
2023/08/26 11:47:38;;;;;;;0.00;0.00;;;19.40;72.60;;;;;;5029915;28;20037;-70
2023/08/26 11:50:04;;;;;;;0.00;0.00;;;19.30;73.20;;;;;;5029603;28;20057;-70
2023/08/26 11:52:34;;;;;;;0.00;0.00;;;19.30;73.40;;;;;;5030665;28;20045;-70
2023/08/26 11:55:02;;;;;;;0.00;0.00;;;19.20;73.30;;;;;;5029932;28;20033;-70
2023/08/26 11:57:27;;;;;;;0.00;0.00;;;19.10;73.70;;;;;;5029745;28;20049;-71
2023/08/26 12:00:04;;;;;;;0.00;0.00;;;19.10;72.20;;;;;;5026920;28;20047;-71
2023/08/26 12:02:30;;;;;;;0.00;0.00;;;19.00;72.60;;;;;;5015328;28;20041;-68
2023/08/26 12:04:59;;;;;;;0.00;0.00;;;18.90;73.40;;;;;;5012011;28;20042;-70
2023/08/26 12:07:26;;;;;;;0.00;0.00;;;18.90;74.10;;;;;;5026697;28;20041;-69
2023/08/26 12:10:16;;;;;;;0.00;0.00;;;18.90;74.00;;;;;;5012553;28;20065;-70
2023/08/26 12:12:42;;;;;;;0.10;0.10;;;18.80;74.00;;;;;;5008972;28;20434;-72
2023/08/26 12:15:10;;;;;;;0.00;0.00;;;18.80;74.10;;;;;;5014140;28;20050;-70
2023/08/26 12:17:46;;;;;;;0.00;0.00;;;18.80;74.20;;;;;;5018467;28;21018;-70
2023/08/26 12:20:26;;;;;;;0.00;0.00;;;18.80;74.50;;;;;;5017724;28;20046;-70
2023/08/26 12:22:57;;;;;;;0.00;0.00;;;18.80;75.00;;;;;;5019909;28;20037;-70
2023/08/26 12:25:33;;;;;;;0.00;0.00;;;18.80;75.20;;;;;;5013446;28;20076;-70
2023/08/26 12:28:14;;;;;;;0.00;0.00;;;18.90;75.20;;;;;;5008656;28;20121;-70
2023/08/26 12:30:41;;;;;;;;;;;18.80;75.20;;;;;;5010707;28;20100;-70
2023/08/26 12:33:07;;;;;;;0.00;0.00;;;18.70;75.80;;;;;;5010312;28;19921;-70
2023/08/26 12:35:37;;;;;;;0.05;0.05;;;18.70;76.50;;;;;;5017336;28;20037;-71
2023/08/26 12:38:03;;;;;;;0.00;0.00;;;18.60;77.10;;;;;;5022938;28;20049;-69
2023/08/26 12:40:30;;;;;;;0.00;0.00;;;18.70;77.50;;;;;;5011606;28;20505;-69
2023/08/26 12:42:57;;;;;;;0.00;0.00;;;18.70;77.20;;;;;;5003662;28;20056;-69
2023/08/26 12:45:22;;;;;;;0.00;0.00;;;18.60;76.70;;;;;;5019457;28;20046;-70
2023/08/26 12:47:48;;;;;;;0.00;0.00;;;18.60;76.80;;;;;;5021836;28;20103;-70
2023/08/26 12:50:13;;;;;;;0.00;0.00;;;18.60;76.70;;;;;;5016435;28;20042;-69
2023/08/26 12:52:39;;;;;;;0.00;0.00;;;18.60;76.90;;;;;;5010518;28;20046;-70
2023/08/26 12:55:06;;;;;;;1.35;0.65;;;18.60;76.80;;;;;;5007955;28;20049;-68
2023/08/26 12:57:32;;;;;;;0.00;0.00;;;18.80;76.90;;;;;;5022481;28;20046;-68
2023/08/26 12:59:58;;;;;;;0.00;0.00;;;19.00;76.40;;;;;;5015039;28;20409;-68
2023/08/26 13:02:23;;;;;;;0.00;0.00;;;19.10;76.10;;;;;;5016266;28;20041;-68
2023/08/26 13:04:49;;;;;;;0.00;0.00;;;19.10;74.60;;;;;;5016751;28;20042;-69
2023/08/26 13:07:15;;;;;;;0.00;0.00;;;19.00;74.00;;;;;;5017389;28;20095;-68
2023/08/26 13:09:41;;;;;;;0.00;0.00;;;19.10;72.40;;;;;;5024819;28;20041;-68
2023/08/26 13:12:06;;;;;;;0.00;0.00;;;19.20;70.80;;;;;;5017320;28;20049;-68
2023/08/26 13:14:32;;;;;;;0.00;0.00;;;19.30;67.90;;;;;;5007666;28;20053;-68
2023/08/26 13:16:58;;;;;;;0.00;0.00;;;19.50;68.50;;;;;;5018322;28;20029;-68
2023/08/26 13:19:24;;;;;;;0.00;0.00;;;19.60;67.40;;;;;;5011914;28;20049;-68
2023/08/26 13:21:50;;;;;;;0.00;0.00;;;19.80;67.60;;;;;;5009224;28;20041;-68
2023/08/26 13:24:16;;;;;;;0.00;0.00;;;19.90;66.60;;;;;;5013014;28;20033;-68
2023/08/26 13:26:44;;;;;;;0.00;0.00;;;20.10;66.80;;;;;;5024930;28;20037;-68
2023/08/26 13:29:09;;;;;;;0.00;0.00;;;20.30;66.90;;;;;;5017270;28;20037;-68
2023/08/26 13:31:35;;;;;;;0.38;0.38;;;20.40;66.80;;;;;;5023927;28;20041;-68
2023/08/26 13:34:01;;;;;;;0.00;0.00;;;20.50;66.10;;;;;;5022400;28;20036;-68
2023/08/26 13:36:26;;;;;;;0.00;0.00;;;20.60;66.70;;;;;;5009015;28;20499;-67
2023/08/26 13:38:52;;;;;;;0.10;0.10;;;20.60;66.60;;;;;;5020310;28;20191;-67
2023/08/26 13:41:18;;;;;;;4.40;1.30;;;20.70;65.80;;;;;;5028883;28;20057;-67